createdAt,value
2023-02-20T00:00:36.624Z,4.9
2023-02-20T00:01:35.428Z,5.3
2023-02-20T00:02:35.289Z,4.8
2023-02-20T00:03:35.134Z,4.6
2023-02-20T00:04:34.924Z,4.7
2023-02-20T00:05:35.837Z,4.8
2023-02-20T00:06:35.640Z,4.7
2023-02-20T00:07:35.333Z,4.6
2023-02-20T00:08:35.098Z,5.9
2023-02-20T00:09:34.941Z,5.7
2023-02-20T00:10:35.658Z,5.6
2023-02-20T00:11:35.459Z,4.5
2023-02-20T00:12:35.394Z,5.8
2023-02-20T00:13:35.092Z,5.4
2023-02-20T00:14:34.989Z,5.2
2023-02-20T00:15:35.739Z,5.8
2023-02-20T00:16:35.576Z,5.8
2023-02-20T00:17:35.338Z,4.8
2023-02-20T00:18:35.128Z,5.2
2023-02-20T00:19:35.037Z,5.0
2023-02-20T00:20:35.712Z,5.4
2023-02-20T00:21:35.562Z,5.8
2023-02-20T00:22:35.461Z,5.3
2023-02-20T00:23:35.218Z,5.8
2023-02-20T00:24:35.636Z,5.2
2023-02-20T00:25:35.745Z,5.7
2023-02-20T00:26:35.635Z,5.6
2023-02-20T00:27:35.505Z,5.1
2023-02-20T00:28:36.710Z,4.0
2023-02-20T00:29:35.105Z,5.4
2023-02-20T00:30:34.984Z,4.5
2023-02-20T00:31:35.648Z,5.5
2023-02-20T00:32:35.414Z,4.1
2023-02-20T00:33:35.267Z,4.7
2023-02-20T00:34:35.072Z,4.7
2023-02-20T00:35:34.888Z,5.5
2023-02-20T00:36:35.633Z,5.8
2023-02-20T00:37:35.487Z,4.8
2023-02-20T00:38:35.338Z,5.2
2023-02-20T00:39:35.166Z,5.6
2023-02-20T00:40:34.986Z,5.2
2023-02-20T00:41:35.639Z,4.9
2023-02-20T00:42:35.468Z,5.2
2023-02-20T00:43:35.374Z,5.2
2023-02-20T00:44:35.183Z,5.2
2023-02-20T00:45:35.028Z,5.5
2023-02-20T00:46:35.882Z,5.8
2023-02-20T00:47:35.624Z,4.7
2023-02-20T00:48:35.529Z,5.9
2023-02-20T00:49:35.302Z,5.4
2023-02-20T00:50:35.183Z,5.9
2023-02-20T00:51:34.949Z,5.2
2023-02-20T00:52:35.753Z,5.2
2023-02-20T00:53:35.468Z,5.0
2023-02-20T00:54:35.763Z,5.8
2023-02-20T00:55:35.110Z,6.5
2023-02-20T00:56:35.022Z,5.3
2023-02-20T00:57:35.613Z,5.3
2023-02-20T00:58:35.710Z,4.8
2023-02-20T00:59:35.334Z,4.8
2023-02-20T01:00:35.512Z,5.5
2023-02-20T01:01:35.457Z,5.4
2023-02-20T01:02:35.249Z,4.7
2023-02-20T01:03:35.057Z,6.1
2023-02-20T01:04:34.893Z,5.4
2023-02-20T01:05:35.724Z,4.9
2023-02-20T01:06:35.602Z,5.1
2023-02-20T01:07:35.298Z,6.3
2023-02-20T01:08:35.373Z,5.5
2023-02-20T01:09:35.434Z,5.7
2023-02-20T01:10:35.284Z,5.0
2023-02-20T01:11:35.081Z,6.1
2023-02-20T01:12:35.947Z,5.0
2023-02-20T01:13:35.655Z,5.1
2023-02-20T01:14:35.763Z,5.1
2023-02-20T01:15:35.224Z,5.0
2023-02-20T01:16:35.045Z,6.3
2023-02-20T01:17:35.862Z,4.7
2023-02-20T01:18:35.655Z,4.5
2023-02-20T01:19:35.453Z,7.0
2023-02-20T01:20:35.292Z,6.0
2023-02-20T01:21:35.089Z,5.8
2023-02-20T01:22:34.935Z,5.2
2023-02-20T01:23:35.603Z,5.9
2023-02-20T01:24:35.532Z,5.0
2023-02-20T01:25:35.337Z,5.6
2023-02-20T01:26:35.181Z,5.5
2023-02-20T01:27:34.949Z,5.9
2023-02-20T01:28:35.674Z,5.2
2023-02-20T01:29:35.542Z,6.2
2023-02-20T01:30:35.534Z,5.5
2023-02-20T01:31:35.327Z,4.8
2023-02-20T01:32:35.035Z,5.1
2023-02-20T01:33:35.762Z,4.4
2023-02-20T01:34:35.539Z,6.1
2023-02-20T01:35:35.598Z,5.0
2023-02-20T01:36:35.204Z,5.0
2023-02-20T01:37:35.052Z,5.4
2023-02-20T01:38:35.976Z,6.2
2023-02-20T01:39:35.645Z,6.1
2023-02-20T01:40:35.621Z,5.7
2023-02-20T01:41:35.309Z,7.2
2023-02-20T01:42:35.135Z,5.6
2023-02-20T01:43:35.010Z,5.6
2023-02-20T01:44:36.337Z,5.9
2023-02-20T01:45:36.234Z,5.3
2023-02-20T01:46:43.224Z,6.1
2023-02-20T01:47:35.550Z,6.1
2023-02-20T01:48:35.405Z,5.4
2023-02-20T01:49:37.638Z,5.7
2023-02-20T01:50:38.880Z,5.2
2023-02-20T01:51:37.736Z,4.8
2023-02-20T01:52:36.128Z,5.5
2023-02-20T01:53:35.482Z,5.3
2023-02-20T01:54:36.600Z,5.5
2023-02-20T01:55:41.568Z,5.3
2023-02-20T01:56:35.092Z,5.2
2023-02-20T01:57:37.498Z,5.4
2023-02-20T01:58:40.356Z,6.0
2023-02-20T01:59:36.866Z,5.1
2023-02-20T02:00:36.008Z,6.1
2023-02-20T02:01:37.894Z,7.2
2023-02-20T02:02:37.096Z,6.0
2023-02-20T02:03:38.122Z,4.8
2023-02-20T02:04:35.902Z,5.4
2023-02-20T02:05:36.330Z,5.6
2023-02-20T02:06:38.877Z,5.4
2023-02-20T02:07:35.212Z,6.5
2023-02-20T02:08:36.698Z,4.5
2023-02-20T02:09:55.250Z,5.6
2023-02-20T02:10:37.645Z,4.8
2023-02-20T02:11:35.102Z,4.7
2023-02-20T02:12:35.280Z,6.4
2023-02-20T02:13:36.726Z,5.8
2023-02-20T02:14:35.578Z,6.3
2023-02-20T02:15:35.418Z,5.8
2023-02-20T02:16:42.688Z,5.0
2023-02-20T02:17:53.149Z,5.7
2023-02-20T02:18:39.741Z,5.6
2023-02-20T02:19:53.642Z,5.6
2023-02-20T02:20:55.221Z,6.0
2023-02-20T02:21:48.716Z,5.6
2023-02-20T02:22:48.708Z,5.2
2023-02-20T02:23:53.149Z,5.9
2023-02-20T02:24:53.654Z,5.5
2023-02-20T02:25:46.227Z,5.9
2023-02-20T02:26:40.238Z,5.4
2023-02-20T02:27:48.160Z,5.3
2023-02-20T02:28:42.709Z,6.4
2023-02-20T02:29:53.694Z,5.1
2023-02-20T02:30:40.455Z,5.1
2023-02-20T02:31:40.429Z,5.3
2023-02-20T02:32:53.215Z,5.2
2023-02-20T02:33:53.167Z,6.1
2023-02-20T02:34:51.721Z,5.9
2023-02-20T02:35:40.508Z,5.8
2023-02-20T02:36:37.741Z,6.5
2023-02-20T02:37:45.688Z,5.2
2023-02-20T02:38:42.696Z,5.4
2023-02-20T02:39:39.885Z,6.5
2023-02-20T02:40:52.179Z,4.9
2023-02-20T02:41:53.148Z,6.7
2023-02-20T02:42:45.658Z,5.5
2023-02-20T02:43:46.178Z,5.9
2023-02-20T02:44:46.199Z,4.8
2023-02-20T02:45:38.785Z,5.7
2023-02-20T02:46:39.956Z,5.3
2023-02-20T02:47:39.951Z,5.6
2023-02-20T02:48:38.479Z,6.6
2023-02-20T02:49:39.987Z,6.7
2023-02-20T02:50:36.974Z,5.9
2023-02-20T02:51:38.034Z,6.2
2023-02-20T02:52:36.112Z,5.7
2023-02-20T02:53:35.300Z,6.5
2023-02-20T02:54:35.370Z,6.0
2023-02-20T02:55:35.126Z,5.7
2023-02-20T02:56:36.840Z,6.0
2023-02-20T02:57:35.452Z,6.1
2023-02-20T02:58:35.308Z,5.3
2023-02-20T02:59:35.136Z,5.6
2023-02-20T03:00:37.881Z,5.2
2023-02-20T03:01:38.843Z,5.9
2023-02-20T03:02:39.910Z,6.3
2023-02-20T03:03:36.772Z,6.4
2023-02-20T03:04:36.543Z,5.9
2023-02-20T03:05:53.638Z,5.8
2023-02-20T03:06:37.168Z,5.9
2023-02-20T03:07:36.854Z,5.5
2023-02-20T03:08:49.333Z,5.9
2023-02-20T03:09:41.533Z,6.6
2023-02-20T03:10:35.532Z,6.1
2023-02-20T03:11:35.546Z,6.0
2023-02-20T03:12:36.774Z,6.1
2023-02-20T03:13:38.985Z,5.6
2023-02-20T03:14:41.854Z,5.9
2023-02-20T03:15:37.780Z,6.4
2023-02-20T03:16:40.361Z,4.9
2023-02-20T03:17:37.252Z,4.6
2023-02-20T03:18:37.907Z,6.1
2023-02-20T03:19:36.364Z,7.1
2023-02-20T03:20:45.549Z,6.7
2023-02-20T03:21:36.101Z,4.8
2023-02-20T03:22:46.188Z,5.6
2023-02-20T03:23:37.374Z,5.5
2023-02-20T03:24:36.733Z,5.2
2023-02-20T03:25:51.740Z,5.9
2023-02-20T03:26:36.546Z,6.1
2023-02-20T03:27:53.146Z,5.7
2023-02-20T03:28:40.480Z,6.5
2023-02-20T03:29:36.637Z,5.8
2023-02-20T03:30:38.530Z,6.7
2023-02-20T03:31:40.510Z,5.6
2023-02-20T03:32:36.998Z,5.6
2023-02-20T03:33:38.335Z,5.1
2023-02-20T03:34:35.370Z,4.4
2023-02-20T03:35:37.804Z,5.1
2023-02-20T03:36:40.456Z,5.8
2023-02-20T03:37:36.722Z,6.2
2023-02-20T03:38:36.814Z,5.5
2023-02-20T03:39:41.238Z,5.0
2023-02-20T03:40:35.790Z,6.9
2023-02-20T03:41:37.530Z,4.6
2023-02-20T03:42:37.329Z,6.1
2023-02-20T03:43:35.653Z,5.2
2023-02-20T03:44:35.885Z,5.7
2023-02-20T03:45:36.722Z,5.8
2023-02-20T03:46:37.380Z,6.1
2023-02-20T03:47:36.473Z,5.5
2023-02-20T03:48:45.702Z,5.6
2023-02-20T03:49:37.208Z,5.3
2023-02-20T03:50:35.213Z,5.9
2023-02-20T03:51:35.919Z,5.9
2023-02-20T03:52:35.687Z,5.9
2023-02-20T03:53:35.939Z,5.1
2023-02-20T03:54:35.611Z,6.2
2023-02-20T03:55:35.106Z,5.2
2023-02-20T03:56:40.898Z,6.4
2023-02-20T03:57:44.223Z,6.6
2023-02-20T03:58:37.568Z,5.5
2023-02-20T03:59:40.167Z,5.6
2023-02-20T04:00:37.649Z,5.7
2023-02-20T04:01:36.309Z,5.8
2023-02-20T04:02:38.950Z,5.3
2023-02-20T04:03:37.526Z,5.7
2023-02-20T04:04:41.253Z,5.0
2023-02-20T04:05:37.343Z,5.1
2023-02-20T04:06:35.719Z,5.7
2023-02-20T04:07:43.960Z,6.5
2023-02-20T04:08:37.718Z,6.4
2023-02-20T04:09:37.801Z,5.4
2023-02-20T04:10:38.569Z,5.8
2023-02-20T04:11:44.339Z,6.4
2023-02-20T04:12:37.790Z,5.5
2023-02-20T04:13:36.446Z,5.4
2023-02-20T04:14:36.141Z,4.9
2023-02-20T04:15:35.818Z,5.7
2023-02-20T04:16:38.082Z,5.9
2023-02-20T04:17:39.019Z,6.4
2023-02-20T04:18:35.941Z,7.0
2023-02-20T04:19:35.574Z,6.1
2023-02-20T04:20:35.542Z,5.3
2023-02-20T04:21:38.643Z,6.1
2023-02-20T04:22:37.390Z,7.1
2023-02-20T04:23:37.695Z,6.8
2023-02-20T04:24:39.706Z,5.6
2023-02-20T04:25:38.897Z,5.4
2023-02-20T04:26:35.443Z,5.8
2023-02-20T04:27:35.204Z,5.9
2023-02-20T04:28:35.121Z,6.7
2023-02-20T04:29:35.640Z,6.6
2023-02-20T04:30:35.726Z,6.2
2023-02-20T04:31:35.382Z,5.9
2023-02-20T04:32:35.287Z,5.8
2023-02-20T04:33:34.959Z,6.0
2023-02-20T04:34:35.271Z,6.6
2023-02-20T04:35:35.032Z,5.7
2023-02-20T04:36:34.896Z,5.4
2023-02-20T04:37:35.667Z,6.6
2023-02-20T04:38:35.483Z,5.6
2023-02-20T04:39:35.343Z,5.8
2023-02-20T04:40:35.202Z,6.2
2023-02-20T04:41:35.008Z,5.9
2023-02-20T04:42:35.665Z,5.3
2023-02-20T04:43:35.571Z,6.2
2023-02-20T04:44:35.385Z,5.3
2023-02-20T04:45:35.159Z,5.5
2023-02-20T04:46:34.981Z,5.8
2023-02-20T04:47:35.760Z,4.8
2023-02-20T04:48:35.654Z,6.0
2023-02-20T04:49:35.407Z,5.5
2023-02-20T04:50:35.284Z,5.0
2023-02-20T04:51:35.181Z,6.0
2023-02-20T04:52:34.931Z,5.1
2023-02-20T04:53:35.612Z,5.7
2023-02-20T04:54:35.457Z,5.7
2023-02-20T04:55:35.234Z,5.9
2023-02-20T04:56:35.149Z,5.7
2023-02-20T04:57:35.004Z,5.5
2023-02-20T04:58:35.710Z,6.0
2023-02-20T04:59:35.610Z,6.6
2023-02-20T05:00:35.392Z,5.8
2023-02-20T05:01:35.327Z,6.4
2023-02-20T05:02:36.875Z,5.4
2023-02-20T05:03:35.703Z,6.5
2023-02-20T05:04:35.602Z,5.5
2023-02-20T05:05:35.445Z,6.3
2023-02-20T05:06:39.261Z,6.2
2023-02-20T05:07:35.043Z,6.0
2023-02-20T05:08:34.944Z,5.9
2023-02-20T05:09:35.685Z,5.2
2023-02-20T05:10:35.496Z,5.2
2023-02-20T05:11:35.632Z,6.0
2023-02-20T05:12:35.142Z,5.5
2023-02-20T05:13:34.960Z,6.5
2023-02-20T05:14:35.718Z,6.2
2023-02-20T05:15:35.534Z,4.5
2023-02-20T05:16:38.875Z,5.6
2023-02-20T05:17:35.572Z,5.4
2023-02-20T05:18:35.064Z,5.6
2023-02-20T05:19:35.831Z,6.1
2023-02-20T05:20:35.107Z,6.7
2023-02-20T05:21:34.990Z,6.2
2023-02-20T05:22:35.717Z,5.9
2023-02-20T05:23:35.546Z,6.2
2023-02-20T05:24:35.394Z,6.0
2023-02-20T05:25:35.253Z,5.7
2023-02-20T05:26:35.045Z,5.6
2023-02-20T05:27:34.872Z,5.1
2023-02-20T05:28:35.653Z,5.2
2023-02-20T05:29:35.037Z,6.7
2023-02-20T05:30:35.821Z,5.3
2023-02-20T05:31:35.650Z,5.2
2023-02-20T05:32:35.318Z,5.9
2023-02-20T05:33:35.145Z,6.3
2023-02-20T05:34:35.392Z,6.1
2023-02-20T05:35:35.216Z,7.3
2023-02-20T05:36:35.064Z,6.4
2023-02-20T05:37:34.928Z,6.7
2023-02-20T05:38:35.661Z,5.3
2023-02-20T05:39:35.529Z,6.6
2023-02-20T05:40:35.370Z,5.5
2023-02-20T05:41:35.237Z,6.0
2023-02-20T05:42:37.315Z,6.3
2023-02-20T05:43:35.687Z,5.4
2023-02-20T05:44:35.642Z,5.4
2023-02-20T05:45:35.384Z,5.9
2023-02-20T05:46:38.306Z,5.9
2023-02-20T05:47:37.852Z,6.0
2023-02-20T05:48:35.755Z,6.1
2023-02-20T05:49:35.778Z,6.1
2023-02-20T05:50:35.447Z,6.1
2023-02-20T05:51:35.341Z,5.8
2023-02-20T05:52:35.137Z,6.1
2023-02-20T05:53:34.897Z,6.8
2023-02-20T05:54:35.576Z,6.1
2023-02-20T05:55:35.405Z,5.8
2023-02-20T05:56:35.298Z,6.6
2023-02-20T05:57:35.098Z,5.8
2023-02-20T05:58:34.910Z,6.2
2023-02-20T05:59:35.656Z,5.5
2023-02-20T06:00:35.486Z,6.7
2023-02-20T06:01:35.405Z,6.8
2023-02-20T06:02:35.144Z,5.5
2023-02-20T06:03:37.228Z,4.8
2023-02-20T06:04:35.758Z,6.3
2023-02-20T06:05:35.604Z,5.5
2023-02-20T06:06:37.103Z,6.2
2023-02-20T06:07:35.181Z,6.7
2023-02-20T06:08:35.044Z,5.5
2023-02-20T06:09:35.743Z,5.8
2023-02-20T06:10:35.920Z,5.6
2023-02-20T06:11:35.706Z,5.9
2023-02-20T06:12:35.272Z,6.9
2023-02-20T06:13:35.298Z,5.8
2023-02-20T06:14:34.929Z,5.8
2023-02-20T06:15:35.542Z,5.2
2023-02-20T06:16:35.438Z,5.8
2023-02-20T06:17:35.289Z,5.4
2023-02-20T06:18:38.652Z,6.4
2023-02-20T06:19:34.928Z,6.5
2023-02-20T06:20:35.635Z,6.0
2023-02-20T06:21:35.498Z,6.1
2023-02-20T06:22:35.450Z,5.9
2023-02-20T06:23:38.812Z,6.5
2023-02-20T06:24:35.462Z,6.8
2023-02-20T06:25:35.366Z,6.0
2023-02-20T06:26:38.466Z,5.5
2023-02-20T06:27:37.670Z,5.9
2023-02-20T06:28:36.558Z,5.5
2023-02-20T06:29:35.456Z,6.1
2023-02-20T06:30:35.427Z,6.5
2023-02-20T06:31:35.515Z,5.9
2023-02-20T06:32:35.024Z,6.5
2023-02-20T06:33:35.559Z,6.8
2023-02-20T06:34:35.047Z,6.3
2023-02-20T06:35:34.881Z,6.8
2023-02-20T06:36:36.634Z,5.5
2023-02-20T06:37:35.543Z,5.4
2023-02-20T06:38:35.380Z,5.6
2023-02-20T06:39:35.155Z,6.1
2023-02-20T06:40:34.989Z,5.4
2023-02-20T06:41:35.698Z,5.7
2023-02-20T06:42:35.541Z,6.1
2023-02-20T06:43:35.359Z,5.4
2023-02-20T06:44:35.255Z,6.0
2023-02-20T06:45:35.009Z,6.3
2023-02-20T06:46:35.871Z,6.1
2023-02-20T06:47:35.122Z,6.4
2023-02-20T06:48:34.973Z,6.4
2023-02-20T06:49:36.062Z,5.9
2023-02-20T06:50:35.580Z,6.5
2023-02-20T06:51:35.403Z,5.8
2023-02-20T06:52:35.644Z,7.1
2023-02-20T06:53:35.453Z,8.2
2023-02-20T06:54:35.325Z,7.7
2023-02-20T06:55:35.188Z,7.4
2023-02-20T06:56:34.923Z,7.0
2023-02-20T06:57:35.609Z,7.1
2023-02-20T06:58:35.432Z,6.5
2023-02-20T06:59:35.491Z,5.7
2023-02-20T07:00:35.149Z,5.0
2023-02-20T07:01:41.735Z,5.6
2023-02-20T07:02:35.760Z,6.4
2023-02-20T07:03:35.572Z,7.1
2023-02-20T07:04:35.366Z,6.2
2023-02-20T07:05:35.329Z,7.7
2023-02-20T07:06:35.044Z,6.4
2023-02-20T07:07:36.010Z,6.1
2023-02-20T07:08:35.550Z,6.2
2023-02-20T07:09:35.393Z,6.6
2023-02-20T07:10:35.292Z,5.8
2023-02-20T07:11:35.168Z,5.8
2023-02-20T07:12:34.913Z,6.6
2023-02-20T07:13:35.686Z,6.3
2023-02-20T07:14:35.469Z,6.2
2023-02-20T07:15:35.394Z,6.5
2023-02-20T07:16:35.123Z,7.9
2023-02-20T07:17:34.959Z,6.4
2023-02-20T07:18:35.712Z,6.8
2023-02-20T07:19:35.627Z,6.6
2023-02-20T07:20:35.347Z,5.3
2023-02-20T07:21:35.185Z,6.1
2023-02-20T07:22:34.991Z,5.7
2023-02-20T07:23:35.750Z,5.9
2023-02-20T07:24:35.592Z,6.4
2023-02-20T07:25:34.949Z,17.5
2023-02-20T07:26:35.344Z,21.6
2023-02-20T07:27:35.814Z,21.4
2023-02-20T07:28:35.488Z,21.3
2023-02-20T07:29:35.838Z,23.8
2023-02-20T07:30:34.947Z,22.8
2023-02-20T07:31:35.115Z,25.0
2023-02-20T07:32:35.327Z,27.6
2023-02-20T07:33:35.294Z,29.6
2023-02-20T07:34:35.062Z,30.8
2023-02-20T07:35:35.623Z,27.1
2023-02-20T07:36:34.994Z,25.3
2023-02-20T07:37:35.286Z,26.4
2023-02-20T07:38:35.671Z,26.5
2023-02-20T07:39:35.706Z,26.6
2023-02-20T07:40:35.134Z,22.6
2023-02-20T07:41:35.148Z,20.1
2023-02-20T07:42:35.255Z,23.4
2023-02-20T07:43:35.562Z,23.4
2023-02-20T07:44:34.931Z,22.6
2023-02-20T07:45:35.200Z,22.2
2023-02-20T07:46:35.040Z,22.6
2023-02-20T07:47:35.741Z,20.8
2023-02-20T07:48:35.117Z,20.7
2023-02-20T07:49:34.988Z,20.9
2023-02-20T07:50:35.696Z,19.6
2023-02-20T07:51:35.537Z,20.2
2023-02-20T07:52:35.237Z,19.9
2023-02-20T07:53:35.071Z,20.7
2023-02-20T07:54:35.372Z,18.6
2023-02-20T07:55:35.451Z,18.1
2023-02-20T07:56:34.974Z,18.9
2023-02-20T07:57:36.247Z,18.9
2023-02-20T07:58:35.508Z,18.0
2023-02-20T07:59:35.762Z,17.5
2023-02-20T08:00:35.642Z,18.3
2023-02-20T08:01:35.130Z,17.6
2023-02-20T08:02:35.798Z,17.1
2023-02-20T08:03:35.078Z,17.9
2023-02-20T08:04:35.168Z,16.6
2023-02-20T08:05:48.228Z,17.4
2023-02-20T08:06:35.038Z,16.3
2023-02-20T08:07:35.820Z,15.3
2023-02-20T08:08:35.158Z,15.5
2023-02-20T08:09:34.965Z,15.4
2023-02-20T08:10:35.663Z,16.1
2023-02-20T08:11:36.168Z,16.3
2023-02-20T08:12:35.294Z,16.2
2023-02-20T08:13:35.216Z,15.0
2023-02-20T08:14:35.441Z,15.8
2023-02-20T08:15:35.654Z,15.7
2023-02-20T08:16:35.489Z,15.9
2023-02-20T08:17:45.884Z,14.4
2023-02-20T08:18:35.294Z,15.6
2023-02-20T08:19:35.589Z,15.9
2023-02-20T08:20:35.672Z,16.1
2023-02-20T08:21:35.035Z,15.0
2023-02-20T08:22:41.302Z,16.4
2023-02-20T08:23:36.710Z,16.9
2023-02-20T08:24:35.408Z,16.1
2023-02-20T08:25:35.662Z,13.3
2023-02-20T08:26:40.419Z,14.4
2023-02-20T08:27:35.347Z,14.2
2023-02-20T08:28:35.668Z,14.8
2023-02-20T08:29:35.048Z,15.3
2023-02-20T08:30:35.791Z,13.7
2023-02-20T08:31:35.677Z,14.9
2023-02-20T08:32:35.081Z,16.6
2023-02-20T08:33:35.631Z,15.8
2023-02-20T08:34:35.630Z,13.4
2023-02-20T08:35:35.449Z,14.2
2023-02-20T08:36:35.618Z,14.6
2023-02-20T08:37:35.086Z,12.4
2023-02-20T08:38:36.238Z,14.3
2023-02-20T08:39:35.722Z,13.6
2023-02-20T08:40:35.284Z,12.4
2023-02-20T08:41:40.389Z,13.9
2023-02-20T08:42:35.389Z,14.4
2023-02-20T08:43:36.775Z,13.9
2023-02-20T08:44:35.449Z,13.0
2023-02-20T08:45:35.301Z,12.0
2023-02-20T08:46:35.054Z,12.1
2023-02-20T08:47:34.903Z,12.5
2023-02-20T08:48:35.602Z,14.3
2023-02-20T08:49:35.017Z,13.4
2023-02-20T08:50:35.782Z,14.1
2023-02-20T08:51:35.575Z,13.9
2023-02-20T08:52:35.494Z,13.6
2023-02-20T08:53:37.164Z,14.1
2023-02-20T08:54:35.497Z,12.1
2023-02-20T08:55:35.333Z,16.4
2023-02-20T08:56:35.188Z,15.1
2023-02-20T08:57:35.466Z,13.1
2023-02-20T08:58:35.234Z,12.4
2023-02-20T08:59:35.092Z,12.5
2023-02-20T09:00:34.985Z,10.9
2023-02-20T09:01:35.836Z,12.5
2023-02-20T09:02:35.138Z,13.5
2023-02-20T09:03:35.765Z,13.4
2023-02-20T09:04:35.215Z,13.8
2023-02-20T09:05:37.001Z,14.6
2023-02-20T09:06:35.754Z,16.7
2023-02-20T09:07:35.522Z,16.0
2023-02-20T09:08:35.691Z,13.9
2023-02-20T09:09:35.549Z,13.6
2023-02-20T09:10:34.940Z,12.6
2023-02-20T09:11:35.560Z,13.3
2023-02-20T09:12:35.004Z,13.5
2023-02-20T09:13:40.118Z,11.9
2023-02-20T09:14:35.546Z,15.4
2023-02-20T09:15:35.813Z,14.5
2023-02-20T09:16:35.280Z,14.0
2023-02-20T09:17:35.068Z,13.3
2023-02-20T09:18:35.235Z,14.4
2023-02-20T09:19:35.120Z,13.2
2023-02-20T09:20:36.515Z,12.8
2023-02-20T09:21:35.329Z,12.7
2023-02-20T09:22:35.145Z,12.0
2023-02-20T09:23:35.849Z,12.4
2023-02-20T09:24:35.623Z,12.2
2023-02-20T09:25:35.382Z,13.9
2023-02-20T09:26:35.639Z,12.9
2023-02-20T09:27:34.998Z,14.4
2023-02-20T09:28:35.687Z,12.1
2023-02-20T09:29:35.665Z,13.5
2023-02-20T09:30:35.426Z,13.1
2023-02-20T09:31:35.304Z,12.4
2023-02-20T09:32:35.662Z,11.7
2023-02-20T09:33:34.949Z,12.1
2023-02-20T09:34:35.161Z,12.7
2023-02-20T09:35:34.976Z,11.6
2023-02-20T09:36:35.659Z,11.8
2023-02-20T09:37:35.608Z,10.9
2023-02-20T09:38:35.333Z,12.8
2023-02-20T09:39:35.206Z,13.3
2023-02-20T09:40:35.484Z,11.6
2023-02-20T09:41:46.187Z,11.9
2023-02-20T09:42:44.172Z,13.8
2023-02-20T09:43:42.683Z,11.8
2023-02-20T09:44:43.174Z,12.2
2023-02-20T09:45:35.605Z,13.6
2023-02-20T09:46:39.101Z,11.3
2023-02-20T09:47:43.275Z,11.7
2023-02-20T09:48:53.635Z,11.3
2023-02-20T09:49:35.667Z,13.0
2023-02-20T09:50:40.014Z,11.8
2023-02-20T09:51:37.071Z,11.4
2023-02-20T09:52:36.030Z,12.1
2023-02-20T09:53:42.815Z,12.5
2023-02-20T09:54:39.373Z,15.2
2023-02-20T09:55:37.876Z,16.9
2023-02-20T09:56:40.773Z,14.8
2023-02-20T09:57:35.776Z,15.1
2023-02-20T09:58:39.882Z,13.2
2023-02-20T09:59:46.190Z,14.4
2023-02-20T10:00:36.577Z,13.1
2023-02-20T10:01:36.803Z,11.3
2023-02-20T10:02:40.376Z,12.3
2023-02-20T10:03:51.761Z,12.0
2023-02-20T10:04:40.050Z,13.1
2023-02-20T10:05:35.731Z,13.1
2023-02-20T10:06:35.485Z,12.3
2023-02-20T10:07:36.526Z,12.0
2023-02-20T10:08:34.992Z,12.7
2023-02-20T10:09:36.120Z,13.1
2023-02-20T10:10:35.822Z,12.5
2023-02-20T10:11:48.713Z,13.5
2023-02-20T10:12:38.744Z,13.1
2023-02-20T10:13:39.921Z,14.6
2023-02-20T10:14:40.632Z,11.5
2023-02-20T10:15:42.690Z,12.3
2023-02-20T10:16:46.325Z,12.7
2023-02-20T10:17:42.693Z,12.4
2023-02-20T10:18:43.196Z,12.8
2023-02-20T10:19:42.746Z,13.3
2023-02-20T10:20:53.116Z,13.2
2023-02-20T10:21:48.365Z,13.6
2023-02-20T10:22:40.097Z,12.5
2023-02-20T10:23:51.344Z,12.9
2023-02-20T10:24:53.696Z,12.6
2023-02-20T10:25:43.919Z,12.6
2023-02-20T10:26:38.957Z,11.6
2023-02-20T10:27:55.274Z,13.2
2023-02-20T10:28:35.722Z,13.8
2023-02-20T10:29:36.336Z,12.2
2023-02-20T10:30:38.611Z,11.7
2023-02-20T10:31:39.283Z,12.3
2023-02-20T10:32:39.917Z,12.9
2023-02-20T10:33:39.651Z,12.9
2023-02-20T10:34:49.238Z,12.6
2023-02-20T10:35:40.146Z,11.2
2023-02-20T10:36:40.042Z,11.4
2023-02-20T10:37:47.110Z,12.5
2023-02-20T10:38:39.137Z,14.1
2023-02-20T10:39:36.016Z,13.6
2023-02-20T10:40:42.776Z,13.2
2023-02-20T10:41:39.941Z,13.1
2023-02-20T10:42:40.113Z,11.6
2023-02-20T10:43:40.045Z,12.9
2023-02-20T10:44:51.086Z,10.8
2023-02-20T10:45:43.484Z,14.3
2023-02-20T10:46:48.914Z,15.5
2023-02-20T10:47:49.747Z,15.1
2023-02-20T10:48:37.725Z,13.3
2023-02-20T10:49:40.314Z,12.7
2023-02-20T10:50:38.534Z,12.8
2023-02-20T10:51:40.473Z,12.6
2023-02-20T10:52:38.920Z,11.6
2023-02-20T10:53:48.719Z,13.7
2023-02-20T10:54:39.881Z,13.9
2023-02-20T10:55:43.206Z,12.3
2023-02-20T10:56:41.430Z,13.0
2023-02-20T10:57:39.025Z,13.0
2023-02-20T10:58:41.578Z,13.8
2023-02-20T10:59:42.861Z,14.1
2023-02-20T11:00:45.737Z,12.9
2023-02-20T11:01:36.627Z,13.6
2023-02-20T11:02:39.420Z,13.6
2023-02-20T11:03:48.730Z,13.9
2023-02-20T11:04:36.585Z,13.2
2023-02-20T11:05:39.195Z,14.3
2023-02-20T11:06:39.916Z,14.0
2023-02-20T11:07:35.385Z,14.6
2023-02-20T11:08:35.603Z,14.0
2023-02-20T11:09:35.410Z,14.2
2023-02-20T11:10:35.195Z,16.5
2023-02-20T11:11:37.037Z,14.0
2023-02-20T11:12:40.773Z,14.0
2023-02-20T11:13:35.565Z,13.1
2023-02-20T11:14:44.920Z,14.5
2023-02-20T11:15:35.395Z,13.0
2023-02-20T11:16:37.846Z,13.2
2023-02-20T11:17:37.281Z,12.4
2023-02-20T11:18:37.420Z,13.2
2023-02-20T11:19:39.621Z,14.2
2023-02-20T11:20:38.845Z,13.4
2023-02-20T11:21:37.122Z,13.8
2023-02-20T11:22:45.726Z,12.7
2023-02-20T11:23:42.123Z,12.1
2023-02-20T11:24:39.227Z,13.5
2023-02-20T11:25:36.108Z,13.2
2023-02-20T11:26:35.094Z,13.2
2023-02-20T11:27:34.876Z,14.4
2023-02-20T11:28:35.635Z,13.0
2023-02-20T11:29:46.142Z,13.8
2023-02-20T11:30:39.508Z,14.1
2023-02-20T11:31:35.716Z,12.9
2023-02-20T11:32:36.944Z,14.0
2023-02-20T11:33:40.437Z,12.8
2023-02-20T11:34:35.433Z,12.4
2023-02-20T11:35:41.432Z,13.2
2023-02-20T11:36:40.531Z,13.7
2023-02-20T11:37:40.115Z,13.3
2023-02-20T11:38:35.989Z,14.0
2023-02-20T11:39:35.667Z,11.5
2023-02-20T11:40:35.335Z,12.4
2023-02-20T11:41:35.818Z,12.6
2023-02-20T11:42:35.642Z,11.7
2023-02-20T11:43:36.795Z,13.6
2023-02-20T11:44:35.482Z,13.1
2023-02-20T11:45:35.756Z,13.4
2023-02-20T11:46:36.083Z,12.3
2023-02-20T11:47:34.926Z,12.4
2023-02-20T11:48:35.507Z,13.4
2023-02-20T11:49:35.477Z,12.8
2023-02-20T11:50:41.880Z,13.7
2023-02-20T11:51:42.623Z,12.6
2023-02-20T11:52:35.337Z,14.2
2023-02-20T11:53:35.074Z,11.8
2023-02-20T11:54:34.937Z,11.8
2023-02-20T11:55:35.726Z,12.8
2023-02-20T11:56:35.854Z,12.8
2023-02-20T11:57:36.868Z,13.5
2023-02-20T11:58:36.232Z,11.6
2023-02-20T11:59:37.037Z,11.8
2023-02-20T12:00:45.370Z,12.7
2023-02-20T12:01:35.167Z,13.6
2023-02-20T12:02:35.552Z,14.3
2023-02-20T12:03:35.710Z,14.2
2023-02-20T12:04:35.047Z,14.3
2023-02-20T12:05:40.219Z,16.1
2023-02-20T12:06:40.435Z,13.7
2023-02-20T12:07:46.339Z,14.3
2023-02-20T12:08:40.136Z,12.7
2023-02-20T12:09:35.182Z,13.2
2023-02-20T12:10:42.135Z,12.6
2023-02-20T12:11:35.139Z,12.3
2023-02-20T12:12:35.042Z,13.9
2023-02-20T12:13:37.536Z,11.7
2023-02-20T12:14:35.533Z,11.5
2023-02-20T12:15:34.900Z,12.2
2023-02-20T12:16:48.703Z,12.4
2023-02-20T12:17:39.914Z,12.4
2023-02-20T12:18:40.617Z,13.1
2023-02-20T12:19:48.701Z,12.7
2023-02-20T12:20:36.278Z,11.9
2023-02-20T12:21:40.049Z,12.2
2023-02-20T12:22:35.954Z,11.9
2023-02-20T12:23:40.169Z,13.5
2023-02-20T12:24:53.667Z,13.9
2023-02-20T12:25:48.729Z,13.8
2023-02-20T12:26:41.361Z,12.0
2023-02-20T12:27:52.197Z,11.5
2023-02-20T12:28:49.198Z,12.1
2023-02-20T12:29:53.142Z,13.1
2023-02-20T12:30:58.292Z,12.4
2023-02-20T12:31:43.380Z,13.3
2023-02-20T12:32:39.929Z,13.8
2023-02-20T12:33:53.658Z,14.1
2023-02-20T12:34:57.881Z,13.4
2023-02-20T12:35:35.948Z,13.9
2023-02-20T12:36:40.051Z,14.2
2023-02-20T12:37:43.317Z,14.4
2023-02-20T12:38:45.737Z,11.8
2023-02-20T12:39:57.730Z,12.1
2023-02-20T12:40:48.832Z,12.0
2023-02-20T12:41:56.048Z,12.2
2023-02-20T12:42:52.342Z,12.4
2023-02-20T12:43:48.757Z,12.1
2023-02-20T12:44:40.470Z,12.6
2023-02-20T12:45:41.553Z,11.9
2023-02-20T12:46:40.335Z,11.4
2023-02-20T12:47:37.612Z,12.5
2023-02-20T12:48:53.643Z,12.3
2023-02-20T12:49:48.709Z,14.0
2023-02-20T12:50:53.636Z,13.3
2023-02-20T12:51:42.070Z,12.0
2023-02-20T12:52:38.930Z,11.7
2023-02-20T12:53:39.930Z,13.5
2023-02-20T12:54:53.133Z,13.3
2023-02-20T12:55:46.214Z,13.1
2023-02-20T12:56:53.158Z,11.4
2023-02-20T12:57:40.048Z,11.6
2023-02-20T12:58:42.828Z,11.1
2023-02-20T12:59:40.567Z,11.6
2023-02-20T13:00:51.426Z,12.4
2023-02-20T13:01:40.135Z,12.3
2023-02-20T13:02:42.798Z,12.3
2023-02-20T13:03:47.185Z,10.9
2023-02-20T13:04:42.728Z,11.4
2023-02-20T13:05:37.904Z,11.6
2023-02-20T13:06:38.970Z,11.7
2023-02-20T13:07:53.988Z,12.4
2023-02-20T13:08:57.817Z,11.7
2023-02-20T13:09:38.972Z,11.3
2023-02-20T13:10:46.250Z,12.3
2023-02-20T13:11:39.948Z,11.7
2023-02-20T13:12:35.192Z,11.0
2023-02-20T13:13:37.223Z,10.8
2023-02-20T13:14:57.719Z,12.7
2023-02-20T13:15:39.752Z,11.6
2023-02-20T13:16:39.017Z,11.1
2023-02-20T13:17:43.216Z,11.6
2023-02-20T13:18:46.218Z,12.9
2023-02-20T13:19:44.856Z,12.9
2023-02-20T13:20:44.318Z,12.6
2023-02-20T13:21:35.316Z,12.1
2023-02-20T13:22:35.233Z,13.6
2023-02-20T13:23:36.008Z,11.9
2023-02-20T13:24:36.578Z,12.6
2023-02-20T13:25:43.298Z,11.1
2023-02-20T13:26:43.279Z,11.1
2023-02-20T13:27:35.704Z,13.2
2023-02-20T13:28:41.145Z,13.2
2023-02-20T13:29:37.208Z,12.3
2023-02-20T13:30:35.630Z,12.2
2023-02-20T13:31:40.266Z,12.2
2023-02-20T13:32:35.341Z,13.1
2023-02-20T13:33:35.068Z,11.7